Дата Пункты Температура Давл., мм. Влажн., % Ветер Погодные явления
Воздуха Воды Направл. Скорость
01.05.19 09:00 Одесса 11.0 12.0 749 93 З 1 21 ГОДИНУ
01.05.19 06:00 Одесса 13.0 12.0 748 84 Пд-З 4 18 ГОДИН
01.05.19 03:00 Одесса 13.0 12.0 749 77 Пд-З 3 15 ГОДИН
01.05.19 12:00 Одесса 18.0 12.0 749 46 Пд-З 5 12 ГОДИН
01.05.19 09:00 Одесса 16.0 12.0 750 57 Пд-З 3 09 ГОДИН
01.05.19 06:00 Одесса 13.0 11.0 750 80 Пд-З 1 06 ГОДИН
01.05.19 03:00 Одесса 13.0 11.0 750 89 Пд-З 1 03 ГОДИНИ
30.04.19 09:00 Одесса 12.0 11.0 752 95 Пд-С 2 21 ГОДИНУ
30.04.19 06:00 Одесса 13.0 11.0 752 90 Пн-С 2 18 ГОДИН
30.04.19 03:00 Одесса 14.0 11.0 754 84 Пд 2 15 ГОДИН
30.04.19 12:00 Одесса 14.0 11.0 754 88 Пд 4 12 ГОДИН
30.04.19 09:00 Одесса 14.0 11.0 754 77 Пд-С 1 09 ГОДИН
30.04.19 06:00 Одесса 13.0 12.0 754 67 Пд-З 1 06 ГОДИН
30.04.19 03:00 Одесса 15.0 12.0 754 57 З 2 03 ГОДИНИ
29.04.19 09:00 Одесса 16.0 12.0 754 58 Пд-З 2 21 ГОДИНУ
29.04.19 06:00 Одесса 20.0 13.0 753 45 Пд-З 3 18 ГОДИН
29.04.19 03:00 Одесса 18.0 13.0 754 60 Пд 3 15 ГОДИН
29.04.19 12:00 Одесса 22.0 12.0 754 48 З 3 12 ГОДИН
29.04.19 09:00 Одесса 16.0 12.0 754 67 Пд-З 2 09 ГОДИН
29.04.19 06:00 Одесса 13.0 11.0 754 76 Пд-З 3 06 ГОДИН
Количество строк
1 2 3 4 5 6 7 8 9 10
Page 8 of 491